createdAt,value
2017-07-20T00:01:13.231Z,24.62
2017-07-20T00:03:40.969Z,24.32
2017-07-20T00:06:09.558Z,23.12
2017-07-20T00:08:38.323Z,20.40
2017-07-20T00:11:05.500Z,20.80
2017-07-20T00:13:32.450Z,21.07
2017-07-20T00:15:59.651Z,20.73
2017-07-20T00:18:29.855Z,20.08
2017-07-20T00:20:58.719Z,18.88
2017-07-20T00:23:28.733Z,18.82
2017-07-20T00:25:57.836Z,21.30
2017-07-20T00:28:27.121Z,19.73
2017-07-20T00:30:54.773Z,17.97
2017-07-20T00:33:23.793Z,18.55
2017-07-20T00:35:53.696Z,16.95
2017-07-20T00:38:22.909Z,16.42
2017-07-20T00:40:54.902Z,18.82
2017-07-20T00:43:22.559Z,18.27
2017-07-20T00:45:50.401Z,18.77
2017-07-20T00:48:19.121Z,17.47
2017-07-20T00:50:50.039Z,20.02
2017-07-20T00:55:51.080Z,20.58
2017-07-20T00:58:18.428Z,19.25
2017-07-20T01:00:46.137Z,21.55
2017-07-20T01:03:16.479Z,25.62
2017-07-20T01:05:47.384Z,20.72
2017-07-20T01:08:18.511Z,23.23
2017-07-20T01:10:59.414Z,22.72
2017-07-20T01:13:26.214Z,21.35
2017-07-20T01:15:55.298Z,22.60
2017-07-20T01:18:23.011Z,26.93
2017-07-20T01:20:57.292Z,25.18
2017-07-20T01:23:27.442Z,22.10
2017-07-20T01:25:54.204Z,25.32
2017-07-20T01:28:21.377Z,20.80
2017-07-20T01:30:50.956Z,21.10
2017-07-20T01:33:19.276Z,20.93
2017-07-20T01:35:47.281Z,22.40
2017-07-20T01:38:15.637Z,23.13
2017-07-20T01:40:45.155Z,21.50
2017-07-20T01:43:13.043Z,21.08
2017-07-20T01:45:42.495Z,22.85
2017-07-20T01:48:12.422Z,22.70
2017-07-20T01:50:42.109Z,25.52
2017-07-20T01:53:10.011Z,25.23
2017-07-20T01:55:36.832Z,24.57
2017-07-20T01:58:04.713Z,28.17
2017-07-20T02:00:32.099Z,25.03
2017-07-20T02:02:59.229Z,26.97
2017-07-20T02:05:26.410Z,25.82
2017-07-20T02:07:54.596Z,23.52
2017-07-20T02:10:23.481Z,26.27
2017-07-20T02:12:53.747Z,25.15
2017-07-20T02:15:27.435Z,31.27
2017-07-20T02:17:56.060Z,26.95
2017-07-20T02:20:26.618Z,25.38
2017-07-20T02:22:53.438Z,25.77
2017-07-20T02:25:21.304Z,24.88
2017-07-20T02:27:50.599Z,25.15
2017-07-20T02:30:19.019Z,25.97
2017-07-20T02:32:48.336Z,24.30
2017-07-20T02:35:16.720Z,22.63
2017-07-20T02:37:53.958Z,23.85
2017-07-20T02:40:20.768Z,24.32
2017-07-20T02:42:48.027Z,25.92
2017-07-20T02:45:17.444Z,23.77
2017-07-20T02:47:45.045Z,25.63
2017-07-20T02:52:47.643Z,24.93
2017-07-20T02:55:22.516Z,25.07
2017-07-20T02:57:51.684Z,27.17
2017-07-20T03:00:20.836Z,24.65
2017-07-20T03:02:47.913Z,24.15
2017-07-20T03:05:19.682Z,22.07
2017-07-20T03:07:48.252Z,21.55
2017-07-20T03:10:16.599Z,24.52
2017-07-20T03:12:44.031Z,28.32
2017-07-20T03:15:14.991Z,24.98
2017-07-20T03:17:42.845Z,29.30
2017-07-20T03:20:09.979Z,31.72
2017-07-20T03:22:42.854Z,26.32
2017-07-20T03:25:10.567Z,25.85
2017-07-20T03:30:10.161Z,24.87
2017-07-20T03:32:38.085Z,27.70
2017-07-20T03:35:07.568Z,25.03
2017-07-20T03:40:09.093Z,20.82
2017-07-20T03:42:36.126Z,24.37
2017-07-20T03:45:02.911Z,22.48
2017-07-20T03:47:30.148Z,22.33
2017-07-20T03:49:59.210Z,22.58
2017-07-20T03:52:29.121Z,20.47
2017-07-20T03:54:57.749Z,29.05
2017-07-20T03:57:29.526Z,22.07
2017-07-20T03:59:58.564Z,18.57
2017-07-20T04:02:26.352Z,22.38
2017-07-20T04:04:56.410Z,23.68
2017-07-20T04:07:26.956Z,20.42
2017-07-20T04:09:57.737Z,22.32
2017-07-20T04:15:07.532Z,20.43
2017-07-20T04:17:34.732Z,20.57
2017-07-20T04:20:06.409Z,21.40
2017-07-20T04:22:35.233Z,20.00
2017-07-20T04:25:04.971Z,19.13
2017-07-20T04:27:34.140Z,18.23
2017-07-20T04:30:03.406Z,20.35
2017-07-20T04:35:07.767Z,18.90
2017-07-20T04:37:35.462Z,21.55
2017-07-20T04:40:06.375Z,21.58
2017-07-20T04:42:36.413Z,21.17
2017-07-20T04:45:04.164Z,19.00
2017-07-20T04:47:31.734Z,22.27
2017-07-20T04:49:58.892Z,21.55
2017-07-20T04:52:29.727Z,25.72
2017-07-20T04:54:58.783Z,21.67
2017-07-20T04:57:26.131Z,21.58
2017-07-20T04:59:54.250Z,22.25
2017-07-20T05:02:22.202Z,23.18
2017-07-20T05:04:54.679Z,20.23
2017-07-20T05:07:21.847Z,24.73
2017-07-20T05:09:50.302Z,22.23
2017-07-20T05:12:17.116Z,21.67
2017-07-20T05:14:45.535Z,18.43
2017-07-20T05:17:14.271Z,21.57
2017-07-20T05:19:42.185Z,22.92
2017-07-20T05:24:45.878Z,25.47
2017-07-20T05:27:13.535Z,25.42
2017-07-20T05:29:51.483Z,24.68
2017-07-20T05:34:53.342Z,29.78
2017-07-20T05:37:22.883Z,25.52
2017-07-20T05:39:53.277Z,25.55
2017-07-20T05:42:24.018Z,24.23
2017-07-20T05:44:53.351Z,22.72
2017-07-20T05:47:21.467Z,22.07
2017-07-20T05:49:51.043Z,21.08
2017-07-20T05:52:20.032Z,23.73
2017-07-20T05:54:48.227Z,24.13
2017-07-20T05:57:17.779Z,22.60
2017-07-20T05:59:46.044Z,25.13
2017-07-20T06:02:14.779Z,23.55
2017-07-20T06:04:42.035Z,26.57
2017-07-20T06:07:09.226Z,26.12
2017-07-20T06:09:36.278Z,23.62
2017-07-20T06:12:03.423Z,26.38
2017-07-20T06:14:30.412Z,26.80
2017-07-20T06:16:57.562Z,27.62
2017-07-20T06:19:24.722Z,25.87
2017-07-20T06:21:51.813Z,23.55
2017-07-20T06:24:18.921Z,19.82
2017-07-20T06:26:46.586Z,19.70
2017-07-20T06:29:13.637Z,24.17
2017-07-20T06:31:40.680Z,25.75
2017-07-20T06:34:07.753Z,24.17
2017-07-20T06:36:34.882Z,21.12
2017-07-20T06:39:02.021Z,22.85
2017-07-20T06:41:29.173Z,18.62
2017-07-20T06:43:56.223Z,20.35
2017-07-20T06:46:23.322Z,18.87
2017-07-20T06:48:51.058Z,23.72
2017-07-20T06:51:17.901Z,19.72
2017-07-20T06:53:45.077Z,19.93
2017-07-20T06:56:12.090Z,19.13
2017-07-20T06:58:39.166Z,18.97
2017-07-20T07:01:05.972Z,22.00
2017-07-20T07:03:33.096Z,21.55
2017-07-20T07:05:59.956Z,19.50
2017-07-20T07:08:26.791Z,22.50
2017-07-20T07:10:53.618Z,21.83
2017-07-20T07:13:20.620Z,24.07
2017-07-20T07:15:49.107Z,21.07
2017-07-20T07:18:15.929Z,25.48
2017-07-20T07:20:43.455Z,22.65
2017-07-20T07:23:10.265Z,22.38
2017-07-20T07:25:41.150Z,21.02
2017-07-20T07:28:09.358Z,21.72
2017-07-20T07:30:36.389Z,19.17
2017-07-20T07:33:03.517Z,20.10
2017-07-20T07:35:30.686Z,18.95
2017-07-20T07:37:57.886Z,19.33
2017-07-20T07:40:25.448Z,17.43
2017-07-20T07:42:52.527Z,19.32
2017-07-20T07:45:19.582Z,18.62
2017-07-20T07:47:46.649Z,19.37
2017-07-20T07:50:13.827Z,22.30
2017-07-20T07:52:40.849Z,20.93
2017-07-20T07:55:07.931Z,19.80
2017-07-20T07:57:35.076Z,20.18
2017-07-20T08:00:02.264Z,20.35
2017-07-20T08:02:29.279Z,22.48
2017-07-20T08:04:56.288Z,21.68
2017-07-20T08:07:24.041Z,19.52
2017-07-20T08:09:51.053Z,20.32
2017-07-20T08:12:18.537Z,19.20
2017-07-20T08:14:45.683Z,19.67
2017-07-20T08:17:13.173Z,19.90
2017-07-20T08:19:40.654Z,17.78
2017-07-20T08:22:08.160Z,18.68
2017-07-20T08:24:34.942Z,18.10
2017-07-20T08:27:01.728Z,17.52
2017-07-20T08:29:28.769Z,17.17
2017-07-20T08:31:55.906Z,16.40
2017-07-20T08:34:22.912Z,15.32
2017-07-20T08:39:36.135Z,18.30
2017-07-20T08:42:02.934Z,18.63
2017-07-20T08:44:29.738Z,15.90
2017-07-20T08:46:56.567Z,17.83
2017-07-20T08:49:23.710Z,18.07
2017-07-20T08:51:50.510Z,17.28
2017-07-20T08:54:17.764Z,16.44
2017-07-20T08:56:45.825Z,16.10
2017-07-20T08:59:13.218Z,17.32
2017-07-20T09:04:14.550Z,16.04
2017-07-20T09:06:45.265Z,16.43
2017-07-20T09:09:12.061Z,17.00
2017-07-20T09:11:39.250Z,14.82
2017-07-20T09:14:09.652Z,18.02
2017-07-20T09:16:38.345Z,16.48
2017-07-20T09:19:05.347Z,12.25
2017-07-20T09:21:35.267Z,13.00
2017-07-20T09:24:02.443Z,11.58
2017-07-20T09:26:30.368Z,11.43
2017-07-20T09:28:58.882Z,9.42
2017-07-20T09:31:30.807Z,9.74
2017-07-20T09:33:57.595Z,8.72
2017-07-20T09:36:24.706Z,10.28
2017-07-20T09:38:53.873Z,9.24
2017-07-20T09:41:21.523Z,8.98
2017-07-20T09:43:51.818Z,8.28
2017-07-20T09:46:18.656Z,9.68
2017-07-20T09:48:46.060Z,9.38
2017-07-20T09:51:14.418Z,8.40
2017-07-20T09:53:46.488Z,8.56
2017-07-20T09:56:13.593Z,10.60
2017-07-20T09:58:44.943Z,11.42
2017-07-20T10:01:12.987Z,10.28
2017-07-20T10:03:40.910Z,10.64
2017-07-20T10:06:08.589Z,10.42
2017-07-20T10:08:35.404Z,10.28
2017-07-20T10:13:35.271Z,12.88
2017-07-20T10:16:05.480Z,10.56
2017-07-20T10:18:35.829Z,10.32
2017-07-20T10:21:02.927Z,10.60
2017-07-20T10:23:30.078Z,10.68
2017-07-20T10:25:58.617Z,9.58
2017-07-20T10:28:26.137Z,9.76
2017-07-20T10:31:00.157Z,8.88
2017-07-20T10:33:29.677Z,9.02
2017-07-20T10:36:02.765Z,9.02
2017-07-20T10:38:31.061Z,9.54
2017-07-20T10:40:59.667Z,12.04
2017-07-20T10:43:26.788Z,10.46
2017-07-20T10:45:53.615Z,9.52
2017-07-20T10:48:21.141Z,10.72
2017-07-20T10:50:48.547Z,11.26
2017-07-20T10:53:16.837Z,11.00
2017-07-20T10:55:45.232Z,11.20
2017-07-20T10:58:12.631Z,12.12
2017-07-20T11:00:41.563Z,11.64
2017-07-20T11:03:09.933Z,14.24
2017-07-20T11:05:37.829Z,10.70
2017-07-20T11:08:05.859Z,12.24
2017-07-20T11:10:33.954Z,11.16
2017-07-20T11:13:03.406Z,15.04
2017-07-20T11:15:30.576Z,12.78
2017-07-20T11:18:00.109Z,12.44
2017-07-20T11:20:27.330Z,15.48
2017-07-20T11:22:55.600Z,13.76
2017-07-20T11:25:23.032Z,14.24
2017-07-20T11:27:53.120Z,15.96
2017-07-20T11:30:20.038Z,15.18
2017-07-20T11:32:46.805Z,14.62
2017-07-20T11:35:14.213Z,14.08
2017-07-20T11:37:40.999Z,13.98
2017-07-20T11:40:07.753Z,15.54
2017-07-20T11:42:34.513Z,15.72
2017-07-20T11:45:01.534Z,15.54
2017-07-20T11:47:28.284Z,12.74
2017-07-20T11:49:55.032Z,13.48
2017-07-20T11:52:21.821Z,12.50
2017-07-20T11:54:48.563Z,17.86
2017-07-20T11:57:15.318Z,11.62
2017-07-20T11:59:42.099Z,11.66
2017-07-20T12:02:09.262Z,12.06
2017-07-20T12:04:36.248Z,10.72
2017-07-20T12:07:03.015Z,11.32
2017-07-20T12:09:29.757Z,13.00
2017-07-20T12:11:56.748Z,11.54
2017-07-20T12:14:23.535Z,11.64
2017-07-20T12:16:50.300Z,12.16
2017-07-20T12:19:17.354Z,11.62
2017-07-20T12:21:44.367Z,12.18
2017-07-20T12:24:11.177Z,12.28
2017-07-20T12:26:38.150Z,11.78
2017-07-20T12:29:05.305Z,12.38
2017-07-20T12:31:32.343Z,11.54
2017-07-20T12:33:59.319Z,10.78
2017-07-20T12:36:26.100Z,12.72
2017-07-20T12:38:53.108Z,11.34
2017-07-20T12:41:19.878Z,9.52
2017-07-20T12:43:46.892Z,9.62
2017-07-20T12:46:13.641Z,10.26
2017-07-20T12:48:40.786Z,9.66
2017-07-20T12:51:07.920Z,9.70
2017-07-20T12:53:34.683Z,9.80
2017-07-20T12:56:01.660Z,9.10
2017-07-20T12:58:28.428Z,8.86
2017-07-20T13:00:55.175Z,8.12
2017-07-20T13:03:21.911Z,11.10
2017-07-20T13:05:49.043Z,7.64
2017-07-20T13:08:15.822Z,9.84
2017-07-20T13:10:42.895Z,8.70
2017-07-20T13:13:09.662Z,8.92
2017-07-20T13:15:36.409Z,7.86
2017-07-20T13:18:03.394Z,8.90
2017-07-20T13:20:30.562Z,7.40
2017-07-20T13:22:57.313Z,7.58
2017-07-20T13:25:24.065Z,7.08
2017-07-20T13:27:51.237Z,7.08
2017-07-20T13:30:18.335Z,6.64
2017-07-20T13:32:45.327Z,7.44
2017-07-20T13:35:12.436Z,7.20
2017-07-20T13:37:39.171Z,7.36
2017-07-20T13:40:06.140Z,8.46
2017-07-20T13:42:32.922Z,6.58
2017-07-20T13:44:59.672Z,6.78
2017-07-20T13:47:26.408Z,6.44
2017-07-20T13:49:53.491Z,6.44
2017-07-20T13:52:20.247Z,6.66
2017-07-20T13:54:46.995Z,6.16
2017-07-20T13:57:14.007Z,7.06
2017-07-20T13:59:41.129Z,5.40
2017-07-20T14:02:08.105Z,5.50
2017-07-20T14:04:34.885Z,5.50
2017-07-20T14:07:01.632Z,5.04
2017-07-20T14:09:28.377Z,5.18
2017-07-20T14:11:55.464Z,5.16
2017-07-20T14:14:22.491Z,6.38
2017-07-20T14:16:49.225Z,7.22
2017-07-20T14:19:15.996Z,5.50
2017-07-20T14:21:43.090Z,5.30
2017-07-20T14:24:09.827Z,6.20
2017-07-20T14:26:37.006Z,6.18
2017-07-20T14:29:03.992Z,6.38
2017-07-20T14:31:30.757Z,4.94
2017-07-20T14:33:57.551Z,6.02
2017-07-20T14:36:24.376Z,5.18
2017-07-20T14:38:51.120Z,4.28
2017-07-20T14:41:18.250Z,4.90
2017-07-20T14:43:45.002Z,4.88
2017-07-20T14:46:11.748Z,4.64
2017-07-20T14:48:38.895Z,4.72
2017-07-20T14:51:05.647Z,7.04
2017-07-20T14:53:32.410Z,4.66
2017-07-20T14:55:59.179Z,4.42
2017-07-20T14:58:25.916Z,4.60
2017-07-20T15:00:52.952Z,3.82
2017-07-20T15:03:20.089Z,5.66
2017-07-20T15:05:47.130Z,3.96
2017-07-20T15:08:13.880Z,4.48
2017-07-20T15:10:40.895Z,7.04
2017-07-20T15:13:08.015Z,4.34
2017-07-20T15:15:34.768Z,4.66
2017-07-20T15:18:01.546Z,3.72
2017-07-20T15:20:28.285Z,3.52
2017-07-20T15:22:55.047Z,4.12
2017-07-20T15:25:21.823Z,3.38
2017-07-20T15:27:48.576Z,3.18
2017-07-20T15:30:15.338Z,4.56
2017-07-20T15:32:42.114Z,3.60
2017-07-20T15:35:08.874Z,3.30
2017-07-20T15:37:35.633Z,2.88
2017-07-20T15:40:02.397Z,3.38
2017-07-20T15:42:29.412Z,3.10
2017-07-20T15:44:56.161Z,5.38
2017-07-20T15:47:22.905Z,2.66
2017-07-20T15:49:49.934Z,2.46
2017-07-20T15:52:16.964Z,5.92
2017-07-20T15:54:43.950Z,3.32
2017-07-20T15:57:10.722Z,3.34
2017-07-20T15:59:37.489Z,4.36
2017-07-20T16:02:04.764Z,2.92
2017-07-20T16:04:31.550Z,3.18
2017-07-20T16:06:58.312Z,3.00
2017-07-20T16:09:25.060Z,4.12
2017-07-20T16:11:51.825Z,4.80
2017-07-20T16:14:18.587Z,2.70
2017-07-20T16:16:45.332Z,3.66
2017-07-20T16:19:12.105Z,2.84
2017-07-20T16:21:38.861Z,3.82
2017-07-20T16:24:05.617Z,2.92
2017-07-20T16:26:32.401Z,4.12
2017-07-20T16:28:59.723Z,2.88
2017-07-20T16:31:26.720Z,2.46
2017-07-20T16:33:54.208Z,3.22
2017-07-20T16:36:20.958Z,3.12
2017-07-20T16:38:48.120Z,5.22
2017-07-20T16:41:14.892Z,3.10
2017-07-20T16:43:41.631Z,3.54
2017-07-20T16:46:08.372Z,3.00
2017-07-20T16:48:35.144Z,2.50
2017-07-20T16:51:01.918Z,2.28
2017-07-20T16:53:28.671Z,3.20
2017-07-20T16:55:55.813Z,3.38
2017-07-20T16:58:22.556Z,2.50
2017-07-20T17:00:50.653Z,2.18
2017-07-20T17:03:18.352Z,2.50
2017-07-20T17:05:46.144Z,2.72
2017-07-20T17:08:14.820Z,3.44
2017-07-20T17:10:42.630Z,2.80
2017-07-20T17:13:09.448Z,2.16
2017-07-20T17:15:37.745Z,2.20
2017-07-20T17:20:36.770Z,2.32
2017-07-20T17:23:04.193Z,2.06
2017-07-20T17:25:32.317Z,3.46
2017-07-20T17:28:01.695Z,3.04
2017-07-20T17:30:35.071Z,3.40
2017-07-20T17:33:05.315Z,2.26
2017-07-20T17:35:34.046Z,3.36
2017-07-20T17:38:04.430Z,2.56
2017-07-20T17:43:04.506Z,2.86
2017-07-20T17:45:31.838Z,6.16
2017-07-20T17:48:02.177Z,4.46
2017-07-20T17:50:28.965Z,4.68
2017-07-20T17:52:57.066Z,2.46
2017-07-20T17:55:26.322Z,5.22
2017-07-20T17:57:53.213Z,2.42
2017-07-20T18:00:21.182Z,2.48
2017-07-20T18:02:51.222Z,2.98
2017-07-20T18:05:19.623Z,3.26
2017-07-20T18:07:46.801Z,2.68
2017-07-20T18:10:15.130Z,4.18
2017-07-20T18:12:45.201Z,4.52
2017-07-20T18:15:13.116Z,2.84
2017-07-20T18:18:42.714Z,3.22
2017-07-20T18:21:10.222Z,5.76
2017-07-20T18:23:39.931Z,3.42
2017-07-20T18:26:09.869Z,3.64
2017-07-20T18:28:37.854Z,2.80
2017-07-20T18:31:05.881Z,3.26
2017-07-20T18:33:34.114Z,4.88
2017-07-20T18:36:01.651Z,3.02
2017-07-20T18:38:28.787Z,4.00
2017-07-20T18:40:56.010Z,3.00
2017-07-20T18:43:23.080Z,4.10
2017-07-20T18:45:54.344Z,4.10
2017-07-20T18:48:24.624Z,3.50
2017-07-20T18:50:52.488Z,6.86
2017-07-20T18:53:20.975Z,2.86
2017-07-20T18:55:47.799Z,3.24
2017-07-20T18:58:14.940Z,3.22
2017-07-20T19:00:43.742Z,5.14
2017-07-20T19:03:12.198Z,3.50
2017-07-20T19:05:39.904Z,4.40
2017-07-20T19:08:07.680Z,3.16
2017-07-20T19:16:00.301Z,3.76
2017-07-20T19:18:28.038Z,7.56
2017-07-20T19:20:57.628Z,3.28
2017-07-20T19:23:30.132Z,3.28
2017-07-20T19:25:59.463Z,3.16
2017-07-20T19:28:26.647Z,2.84
2017-07-20T19:30:55.340Z,5.42
2017-07-20T19:33:23.104Z,5.26
2017-07-20T19:35:51.116Z,2.88
2017-07-20T19:38:20.747Z,2.52
2017-07-20T19:40:57.451Z,1.82
2017-07-20T19:43:26.263Z,2.20
2017-07-20T19:45:53.297Z,3.18
2017-07-20T19:48:24.745Z,3.20
2017-07-20T19:50:54.741Z,2.18
2017-07-20T19:53:21.530Z,2.30
2017-07-20T19:55:51.396Z,2.02
2017-07-20T19:58:19.046Z,3.44
2017-07-20T20:00:47.080Z,6.58
2017-07-20T20:03:15.587Z,2.20
2017-07-20T20:05:43.064Z,6.06
2017-07-20T20:08:10.437Z,2.54
2017-07-20T20:10:39.692Z,1.74
2017-07-20T20:15:41.056Z,2.40
2017-07-20T20:18:11.700Z,2.70
2017-07-20T20:20:41.369Z,1.94
2017-07-20T20:23:10.955Z,2.75
2017-07-20T20:25:39.495Z,4.03
2017-07-20T20:28:08.257Z,1.74
2017-07-20T20:30:36.060Z,2.82
2017-07-20T20:33:03.880Z,2.96
2017-07-20T20:35:32.631Z,4.60
2017-07-20T20:40:37.956Z,1.62
2017-07-20T20:43:08.594Z,2.70
2017-07-20T20:45:38.131Z,1.62
2017-07-20T20:48:06.818Z,2.04
2017-07-20T20:53:07.660Z,1.88
2017-07-20T20:55:37.351Z,2.98
2017-07-20T21:00:43.180Z,3.07
2017-07-20T21:03:11.214Z,1.40
2017-07-20T21:05:40.870Z,4.45
2017-07-20T21:08:08.889Z,1.72
2017-07-20T21:10:38.212Z,4.20
2017-07-20T21:13:06.358Z,2.12
2017-07-20T21:18:05.877Z,2.53
2017-07-20T21:20:38.004Z,2.07
2017-07-20T21:23:05.163Z,2.40
2017-07-20T21:25:32.198Z,1.75
2017-07-20T21:27:59.454Z,3.20
2017-07-20T21:30:26.997Z,4.02
2017-07-20T21:32:54.928Z,2.80
2017-07-20T21:35:23.034Z,3.63
2017-07-20T21:37:54.840Z,2.22
2017-07-20T21:40:21.880Z,2.10
2017-07-20T21:42:50.158Z,3.30
2017-07-20T21:45:21.124Z,3.55
2017-07-20T21:47:48.768Z,2.83
2017-07-20T21:50:19.638Z,5.37
2017-07-20T21:52:47.663Z,2.00
2017-07-20T21:55:15.676Z,3.02
2017-07-20T21:57:42.984Z,2.83
2017-07-20T22:00:10.744Z,3.67
2017-07-20T22:02:38.057Z,3.08
2017-07-20T22:05:06.116Z,4.83
2017-07-20T22:07:33.841Z,4.73
2017-07-20T22:10:02.440Z,2.63
2017-07-20T22:12:29.362Z,4.32
2017-07-20T22:17:34.458Z,2.48
2017-07-20T22:20:02.486Z,4.15
2017-07-20T22:22:31.416Z,2.90
2017-07-20T22:25:03.236Z,4.32
2017-07-20T22:27:30.059Z,3.53
2017-07-20T22:29:56.856Z,3.52
2017-07-20T22:32:25.991Z,2.45
2017-07-20T22:34:54.343Z,3.48
2017-07-20T22:37:21.484Z,3.02
2017-07-20T22:39:54.057Z,4.68
2017-07-20T22:42:21.513Z,3.90
2017-07-20T22:44:48.335Z,3.62
2017-07-20T22:47:15.798Z,4.70
2017-07-20T22:49:43.830Z,7.03
2017-07-20T22:52:11.140Z,3.83
2017-07-20T22:54:38.202Z,5.87
2017-07-20T22:57:05.440Z,4.93
2017-07-20T22:59:33.823Z,5.82
2017-07-20T23:02:04.320Z,9.52
2017-07-20T23:04:31.935Z,9.73
2017-07-20T23:06:59.750Z,4.58
2017-07-20T23:09:26.693Z,5.58
2017-07-20T23:11:55.028Z,5.78
2017-07-20T23:14:23.616Z,4.10
2017-07-20T23:16:51.129Z,5.15
2017-07-20T23:19:24.172Z,7.30
2017-07-20T23:21:53.278Z,3.80
2017-07-20T23:24:21.040Z,8.48
2017-07-20T23:26:48.362Z,7.52
2017-07-20T23:29:15.213Z,7.33
2017-07-20T23:31:44.869Z,5.98
2017-07-20T23:34:13.934Z,11.08
2017-07-20T23:36:42.323Z,5.12
2017-07-20T23:39:11.746Z,6.23
2017-07-20T23:41:41.988Z,4.62
2017-07-20T23:44:09.530Z,7.43
2017-07-20T23:46:37.661Z,5.33
2017-07-20T23:49:04.930Z,6.85
2017-07-20T23:51:32.732Z,6.97
2017-07-20T23:54:00.309Z,5.63
2017-07-20T23:56:28.474Z,6.63
2017-07-20T23:58:57.489Z,9.35
